Terminal Aerodrome Forecast
Issued by NWS

Home | Current Version | Previous Version | Text Only | Print | Product List | Glossary Off
Versions: 1 2 3 4 5 6 7 8 9 10 11 12 13 14 15 16 17

863
FTUS43 KTOP 152338 AAA
TAFFOE
TAF AMD
KFOE 152338Z 1600/1618 34012KT P6SM BKN150
     FM160200 34015G23KT P6SM FEW015 SCT025 OVC100
     FM160400 35017G27KT P6SM BKN020 OVC100
     FM160700 35020G28KT P6SM SCT025 OVC100
     FM161300 35014KT P6SM SCT200
     FM161700 36011KT P6SM FEW200=

USA.gov is the U.S. government's official web portal to all federal, state and local government web resources and services.